To NAV CANADA Home Page Login to a new session Search on AWWS site Disclaimer Vers la page française équivalente Tips FAQ What's new on the site To the Forecasts and Observations / NOTAM section To "File a Flight Plan" website Publications and other links Update of the User's profile FIC Telephone Numbers My Weather Data Folder Route Weather Data Regional Weather Data Local Weather Data To the Forecasts and Observations / NOTAM section
Request Generated 10/19/2018 at 16:07:25 UTC . Weather information available at that time is displayed.

METAR/TAF

STONY RAPIDS/SK    (show WxCam)

METAR CYSF 191600Z AUTO 31012G19KT 9SM OVC027 M04/M09 A3017 RMK SLP237=
SPECI CYSF 191525Z AUTO 30010G17KT 9SM OVC029 M05/M09 A3016 RMK SLP232=
METAR CYSF 191500Z AUTO 30011G20KT 9SM -SN BKN029 OVC075 M05/M09 A3015 RMK SLP229=
SPECI CYSF 191438Z AUTO 31011G17KT 260V330 9SM -SN BKN029 OVC080 M05/M09 A3014 RMK SLP227=
METAR CYSF 191400Z AUTO 32013G24KT 9SM BKN029 BKN033 M05/M10 A3013 RMK SLP223=

TAF CYSF 191138Z 1912/1924 31015G25KT P6SM BKN025 TEMPO 1912/1924 5SM
-SN BR OVC015
RMK FCST BASED ON AUTO OBS. NXT FCST BY 191800Z=
Your time UTC time
Weather data provided by Environment Canada and NAV CANADA